sensor_id;sensor_type;location;lat;lon;timestamp;pressure;altitude;pressure_sealevel;temperature;humidity
79705;BME280;69496;53.120;8.764;2023-04-25T00:00:43;100702.00;;;9.85;75.42
79705;BME280;69496;53.120;8.764;2023-04-25T00:03:14;100702.00;;;9.84;74.94
79705;BME280;69496;53.120;8.764;2023-04-25T00:05:45;100704.00;;;9.83;74.76
79705;BME280;69496;53.120;8.764;2023-04-25T00:08:13;100705.00;;;9.82;74.32
79705;BME280;69496;53.120;8.764;2023-04-25T00:10:44;100707.00;;;9.81;74.29
79705;BME280;69496;53.120;8.764;2023-04-25T00:13:14;100707.00;;;9.80;73.35
79705;BME280;69496;53.120;8.764;2023-04-25T00:15:44;100710.00;;;9.79;73.01
79705;BME280;69496;53.120;8.764;2023-04-25T00:18:14;100712.00;;;9.77;72.20
79705;BME280;69496;53.120;8.764;2023-04-25T00:20:47;100715.00;;;9.76;72.40
79705;BME280;69496;53.120;8.764;2023-04-25T00:23:18;100717.00;;;9.74;71.90
79705;BME280;69496;53.120;8.764;2023-04-25T00:25:44;100718.00;;;9.72;71.55
79705;BME280;69496;53.120;8.764;2023-04-25T00:28:13;100720.00;;;9.70;71.16
79705;BME280;69496;53.120;8.764;2023-04-25T00:30:43;100721.00;;;9.68;71.23
79705;BME280;69496;53.120;8.764;2023-04-25T00:33:13;100724.00;;;9.67;71.39
79705;BME280;69496;53.120;8.764;2023-04-25T00:35:43;100725.00;;;9.67;71.16
79705;BME280;69496;53.120;8.764;2023-04-25T00:38:14;100725.00;;;9.66;70.69
79705;BME280;69496;53.120;8.764;2023-04-25T00:40:44;100725.00;;;9.65;70.75
79705;BME280;69496;53.120;8.764;2023-04-25T00:43:13;100724.00;;;9.63;70.31
79705;BME280;69496;53.120;8.764;2023-04-25T00:45:43;100725.00;;;9.61;70.54
79705;BME280;69496;53.120;8.764;2023-04-25T00:48:17;100726.00;;;9.60;70.52
79705;BME280;69496;53.120;8.764;2023-04-25T00:50:51;100728.00;;;9.59;70.21
79705;BME280;69496;53.120;8.764;2023-04-25T00:53:14;100729.00;;;9.59;70.17
79705;BME280;69496;53.120;8.764;2023-04-25T00:55:43;100731.00;;;9.59;70.13
79705;BME280;69496;53.120;8.764;2023-04-25T00:58:14;100732.00;;;9.57;70.22
79705;BME280;69496;53.120;8.764;2023-04-25T01:00:45;100732.00;;;9.55;69.96
79705;BME280;69496;53.120;8.764;2023-04-25T01:03:14;100733.00;;;9.53;70.04
79705;BME280;69496;53.120;8.764;2023-04-25T01:05:44;100734.00;;;9.51;70.12
79705;BME280;69496;53.120;8.764;2023-04-25T01:08:14;100735.00;;;9.50;70.05
79705;BME280;69496;53.120;8.764;2023-04-25T01:10:43;100737.00;;;9.48;69.77
79705;BME280;69496;53.120;8.764;2023-04-25T01:13:13;100738.00;;;9.47;69.22
79705;BME280;69496;53.120;8.764;2023-04-25T01:15:44;100739.00;;;9.45;69.19
79705;BME280;69496;53.120;8.764;2023-04-25T01:18:14;100741.00;;;9.43;69.30
79705;BME280;69496;53.120;8.764;2023-04-25T01:20:43;100742.00;;;9.42;69.00
79705;BME280;69496;53.120;8.764;2023-04-25T01:23:13;100743.00;;;9.41;68.62
79705;BME280;69496;53.120;8.764;2023-04-25T01:25:44;100744.00;;;9.39;68.31
79705;BME280;69496;53.120;8.764;2023-04-25T01:28:13;100744.00;;;9.37;68.53
79705;BME280;69496;53.120;8.764;2023-04-25T01:30:43;100744.00;;;9.35;68.19
79705;BME280;69496;53.120;8.764;2023-04-25T01:33:14;100745.00;;;9.32;67.87
79705;BME280;69496;53.120;8.764;2023-04-25T01:35:43;100747.00;;;9.30;67.67
79705;BME280;69496;53.120;8.764;2023-04-25T01:38:14;100749.00;;;9.28;67.30
79705;BME280;69496;53.120;8.764;2023-04-25T01:40:45;100752.00;;;9.27;67.33
79705;BME280;69496;53.120;8.764;2023-04-25T01:43:15;100755.00;;;9.25;67.25
79705;BME280;69496;53.120;8.764;2023-04-25T01:45:43;100758.00;;;9.24;67.06
79705;BME280;69496;53.120;8.764;2023-04-25T01:48:14;100762.00;;;9.22;67.07
79705;BME280;69496;53.120;8.764;2023-04-25T01:50:44;100766.00;;;9.21;66.89
79705;BME280;69496;53.120;8.764;2023-04-25T01:53:14;100769.00;;;9.21;66.72
79705;BME280;69496;53.120;8.764;2023-04-25T01:55:43;100772.00;;;9.21;66.95
79705;BME280;69496;53.120;8.764;2023-04-25T01:58:13;100774.00;;;9.21;66.95
79705;BME280;69496;53.120;8.764;2023-04-25T02:00:43;100776.00;;;9.22;67.24
79705;BME280;69496;53.120;8.764;2023-04-25T02:03:13;100780.00;;;9.22;66.86
79705;BME280;69496;53.120;8.764;2023-04-25T02:05:43;100782.00;;;9.23;66.26
79705;BME280;69496;53.120;8.764;2023-04-25T02:08:13;100784.00;;;9.22;66.02
79705;BME280;69496;53.120;8.764;2023-04-25T02:10:43;100787.00;;;9.21;66.15
79705;BME280;69496;53.120;8.764;2023-04-25T02:13:14;100790.00;;;9.20;66.19
79705;BME280;69496;53.120;8.764;2023-04-25T02:15:43;100792.00;;;9.19;66.17
79705;BME280;69496;53.120;8.764;2023-04-25T02:18:13;100794.00;;;9.18;66.59
79705;BME280;69496;53.120;8.764;2023-04-25T02:20:44;100798.00;;;9.16;66.69
79705;BME280;69496;53.120;8.764;2023-04-25T02:23:14;100801.00;;;9.14;67.09
79705;BME280;69496;53.120;8.764;2023-04-25T02:25:43;100803.00;;;9.13;67.40
79705;BME280;69496;53.120;8.764;2023-04-25T02:28:13;100805.00;;;9.11;66.94
79705;BME280;69496;53.120;8.764;2023-04-25T02:30:43;100807.00;;;9.10;66.55
79705;BME280;69496;53.120;8.764;2023-04-25T02:33:13;100809.00;;;9.08;66.47
79705;BME280;69496;53.120;8.764;2023-04-25T02:35:43;100810.00;;;9.06;66.18
79705;BME280;69496;53.120;8.764;2023-04-25T02:38:13;100809.00;;;9.05;66.04
79705;BME280;69496;53.120;8.764;2023-04-25T02:40:43;100808.00;;;9.03;66.24
79705;BME280;69496;53.120;8.764;2023-04-25T02:43:13;100805.00;;;9.02;66.16
79705;BME280;69496;53.120;8.764;2023-04-25T02:45:43;100804.00;;;9.00;66.41
79705;BME280;69496;53.120;8.764;2023-04-25T02:48:13;100803.00;;;8.98;66.49
79705;BME280;69496;53.120;8.764;2023-04-25T02:50:43;100802.00;;;8.96;66.20
79705;BME280;69496;53.120;8.764;2023-04-25T02:53:13;100800.00;;;8.93;65.86
79705;BME280;69496;53.120;8.764;2023-04-25T02:55:44;100798.00;;;8.90;65.77
79705;BME280;69496;53.120;8.764;2023-04-25T02:58:13;100796.00;;;8.87;65.59
79705;BME280;69496;53.120;8.764;2023-04-25T03:00:43;100793.00;;;8.85;65.82
79705;BME280;69496;53.120;8.764;2023-04-25T03:03:13;100792.00;;;8.83;65.97
79705;BME280;69496;53.120;8.764;2023-04-25T03:05:43;100792.00;;;8.81;66.06
79705;BME280;69496;53.120;8.764;2023-04-25T03:08:13;100792.00;;;8.81;66.19
79705;BME280;69496;53.120;8.764;2023-04-25T03:10:44;100792.00;;;8.80;66.29
79705;BME280;69496;53.120;8.764;2023-04-25T03:13:13;100793.00;;;8.80;66.32
79705;BME280;69496;53.120;8.764;2023-04-25T03:15:43;100794.00;;;8.80;66.32
79705;BME280;69496;53.120;8.764;2023-04-25T03:18:13;100796.00;;;8.80;66.19
79705;BME280;69496;53.120;8.764;2023-04-25T03:20:43;100798.00;;;8.81;66.16
79705;BME280;69496;53.120;8.764;2023-04-25T03:23:14;100800.00;;;8.81;66.11
79705;BME280;69496;53.120;8.764;2023-04-25T03:25:43;100802.00;;;8.82;66.14
79705;BME280;69496;53.120;8.764;2023-04-25T03:28:14;100803.00;;;8.82;66.13
79705;BME280;69496;53.120;8.764;2023-04-25T03:30:43;100804.00;;;8.82;66.30
79705;BME280;69496;53.120;8.764;2023-04-25T03:33:13;100805.00;;;8.82;66.13
79705;BME280;69496;53.120;8.764;2023-04-25T03:35:43;100805.00;;;8.82;66.09
79705;BME280;69496;53.120;8.764;2023-04-25T03:38:13;100808.00;;;8.83;65.66
79705;BME280;69496;53.120;8.764;2023-04-25T03:40:43;100809.00;;;8.83;65.64
79705;BME280;69496;53.120;8.764;2023-04-25T03:43:13;100810.00;;;8.83;65.70
79705;BME280;69496;53.120;8.764;2023-04-25T03:45:43;100809.00;;;8.82;65.66
79705;BME280;69496;53.120;8.764;2023-04-25T03:48:13;100810.00;;;8.80;65.50
79705;BME280;69496;53.120;8.764;2023-04-25T03:50:44;100811.00;;;8.79;65.76
79705;BME280;69496;53.120;8.764;2023-04-25T03:53:13;100812.00;;;8.77;65.42
79705;BME280;69496;53.120;8.764;2023-04-25T03:55:43;100815.00;;;8.76;65.20
79705;BME280;69496;53.120;8.764;2023-04-25T03:58:13;100818.00;;;8.75;64.84
79705;BME280;69496;53.120;8.764;2023-04-25T04:00:44;100821.00;;;8.75;64.57
79705;BME280;69496;53.120;8.764;2023-04-25T04:03:14;100823.00;;;8.75;64.17
79705;BME280;69496;53.120;8.764;2023-04-25T04:05:43;100825.00;;;8.74;63.61
79705;BME280;69496;53.120;8.764;2023-04-25T04:08:13;100829.00;;;8.73;63.31
79705;BME280;69496;53.120;8.764;2023-04-25T04:10:43;100833.00;;;8.72;63.31
79705;BME280;69496;53.120;8.764;2023-04-25T04:13:13;100836.00;;;8.70;63.28
79705;BME280;69496;53.120;8.764;2023-04-25T04:15:43;100839.00;;;8.69;63.43
79705;BME280;69496;53.120;8.764;2023-04-25T04:18:13;100844.00;;;8.68;63.65
79705;BME280;69496;53.120;8.764;2023-04-25T04:20:43;100848.00;;;8.67;63.62
79705;BME280;69496;53.120;8.764;2023-04-25T04:23:14;100851.00;;;8.66;63.81
79705;BME280;69496;53.120;8.764;2023-04-25T04:25:43;100854.00;;;8.66;63.84
79705;BME280;69496;53.120;8.764;2023-04-25T04:28:14;100856.00;;;8.66;63.78
79705;BME280;69496;53.120;8.764;2023-04-25T04:30:47;100860.00;;;8.67;63.66
79705;BME280;69496;53.120;8.764;2023-04-25T04:33:15;100864.00;;;8.68;63.66
79705;BME280;69496;53.120;8.764;2023-04-25T04:35:44;100869.00;;;8.69;63.40
79705;BME280;69496;53.120;8.764;2023-04-25T04:38:16;100873.00;;;8.70;63.23
79705;BME280;69496;53.120;8.764;2023-04-25T04:40:48;100876.00;;;8.71;62.65
79705;BME280;69496;53.120;8.764;2023-04-25T04:43:17;100877.00;;;8.73;62.79
79705;BME280;69496;53.120;8.764;2023-04-25T04:45:45;100879.00;;;8.74;62.61
79705;BME280;69496;53.120;8.764;2023-04-25T04:48:14;100881.00;;;8.74;62.20
79705;BME280;69496;53.120;8.764;2023-04-25T04:50:46;100883.00;;;8.75;62.45
79705;BME280;69496;53.120;8.764;2023-04-25T04:53:14;100884.00;;;8.75;62.57
79705;BME280;69496;53.120;8.764;2023-04-25T04:55:43;100887.00;;;8.75;62.36
79705;BME280;69496;53.120;8.764;2023-04-25T04:58:14;100890.00;;;8.76;62.03
79705;BME280;69496;53.120;8.764;2023-04-25T05:00:44;100893.00;;;8.76;62.06
79705;BME280;69496;53.120;8.764;2023-04-25T05:03:13;100895.00;;;8.77;62.25
79705;BME280;69496;53.120;8.764;2023-04-25T05:05:43;100898.00;;;8.77;62.01
79705;BME280;69496;53.120;8.764;2023-04-25T05:08:13;100900.00;;;8.76;61.97
79705;BME280;69496;53.120;8.764;2023-04-25T05:10:43;100903.00;;;8.76;61.93
79705;BME280;69496;53.120;8.764;2023-04-25T05:13:13;100905.00;;;8.76;62.39
79705;BME280;69496;53.120;8.764;2023-04-25T05:15:43;100908.00;;;8.77;62.79
79705;BME280;69496;53.120;8.764;2023-04-25T05:18:13;100911.00;;;8.78;62.43
79705;BME280;69496;53.120;8.764;2023-04-25T05:20:44;100911.00;;;8.80;62.21
79705;BME280;69496;53.120;8.764;2023-04-25T05:23:13;100911.00;;;8.80;61.89
79705;BME280;69496;53.120;8.764;2023-04-25T05:25:43;100911.00;;;8.80;61.78
79705;BME280;69496;53.120;8.764;2023-04-25T05:28:13;100913.00;;;8.80;62.16
79705;BME280;69496;53.120;8.764;2023-04-25T05:30:43;100914.00;;;8.80;62.64
79705;BME280;69496;53.120;8.764;2023-04-25T05:33:13;100916.00;;;8.81;63.28
79705;BME280;69496;53.120;8.764;2023-04-25T05:35:44;100919.00;;;8.81;63.41
79705;BME280;69496;53.120;8.764;2023-04-25T05:38:13;100921.00;;;8.81;63.63
79705;BME280;69496;53.120;8.764;2023-04-25T05:40:43;100925.00;;;8.81;63.68
79705;BME280;69496;53.120;8.764;2023-04-25T05:43:13;100929.00;;;8.81;63.88
79705;BME280;69496;53.120;8.764;2023-04-25T05:45:43;100932.00;;;8.80;63.96
79705;BME280;69496;53.120;8.764;2023-04-25T05:48:13;100935.00;;;8.78;63.91
79705;BME280;69496;53.120;8.764;2023-04-25T05:50:44;100938.00;;;8.75;64.00
79705;BME280;69496;53.120;8.764;2023-04-25T05:53:13;100941.00;;;8.72;64.23
79705;BME280;69496;53.120;8.764;2023-04-25T05:55:43;100942.00;;;8.68;64.35
79705;BME280;69496;53.120;8.764;2023-04-25T05:58:13;100945.00;;;8.65;64.42
79705;BME280;69496;53.120;8.764;2023-04-25T06:00:43;100947.00;;;8.63;64.45
79705;BME280;69496;53.120;8.764;2023-04-25T06:03:16;100949.00;;;8.62;64.52
79705;BME280;69496;53.120;8.764;2023-04-25T06:05:44;100953.00;;;8.61;64.50
79705;BME280;69496;53.120;8.764;2023-04-25T06:08:13;100954.00;;;8.61;64.36
79705;BME280;69496;53.120;8.764;2023-04-25T06:10:43;100955.00;;;8.61;64.28
79705;BME280;69496;53.120;8.764;2023-04-25T06:13:13;100957.00;;;8.60;64.55
79705;BME280;69496;53.120;8.764;2023-04-25T06:15:43;100957.00;;;8.60;64.76
79705;BME280;69496;53.120;8.764;2023-04-25T06:18:13;100959.00;;;8.62;63.96
79705;BME280;69496;53.120;8.764;2023-04-25T06:20:43;100959.00;;;8.64;63.49
79705;BME280;69496;53.120;8.764;2023-04-25T06:23:13;100960.00;;;8.67;63.41
79705;BME280;69496;53.120;8.764;2023-04-25T06:25:43;100962.00;;;8.70;64.01
79705;BME280;69496;53.120;8.764;2023-04-25T06:28:13;100963.00;;;8.74;64.04
79705;BME280;69496;53.120;8.764;2023-04-25T06:30:43;100966.00;;;8.79;63.80
79705;BME280;69496;53.120;8.764;2023-04-25T06:33:13;100969.00;;;8.84;63.07
79705;BME280;69496;53.120;8.764;2023-04-25T06:35:43;100970.00;;;8.91;62.89
79705;BME280;69496;53.120;8.764;2023-04-25T06:38:13;100972.00;;;8.98;62.63
79705;BME280;69496;53.120;8.764;2023-04-25T06:40:43;100974.00;;;9.06;61.82
79705;BME280;69496;53.120;8.764;2023-04-25T06:43:13;100976.00;;;9.14;61.34
79705;BME280;69496;53.120;8.764;2023-04-25T06:45:43;100977.00;;;9.21;60.52
79705;BME280;69496;53.120;8.764;2023-04-25T06:48:13;100980.00;;;9.28;59.97
79705;BME280;69496;53.120;8.764;2023-04-25T06:50:43;100981.00;;;9.32;59.90
79705;BME280;69496;53.120;8.764;2023-04-25T06:53:13;100982.00;;;9.35;59.76
79705;BME280;69496;53.120;8.764;2023-04-25T06:55:43;100982.00;;;9.38;59.32
79705;BME280;69496;53.120;8.764;2023-04-25T06:58:13;100984.00;;;9.41;59.11
79705;BME280;69496;53.120;8.764;2023-04-25T07:00:43;100988.00;;;9.43;59.36
79705;BME280;69496;53.120;8.764;2023-04-25T07:03:13;100989.00;;;9.46;59.36
79705;BME280;69496;53.120;8.764;2023-04-25T07:05:43;100992.00;;;9.49;59.12
79705;BME280;69496;53.120;8.764;2023-04-25T07:08:13;100994.00;;;9.53;59.05
79705;BME280;69496;53.120;8.764;2023-04-25T07:10:44;100996.00;;;9.56;58.68
79705;BME280;69496;53.120;8.764;2023-04-25T07:13:13;100998.00;;;9.59;59.09
79705;BME280;69496;53.120;8.764;2023-04-25T07:15:44;101001.00;;;9.62;58.71
79705;BME280;69496;53.120;8.764;2023-04-25T07:18:13;101003.00;;;9.63;58.53
79705;BME280;69496;53.120;8.764;2023-04-25T07:20:43;101004.00;;;9.65;59.05
79705;BME280;69496;53.120;8.764;2023-04-25T07:23:13;101005.00;;;9.64;59.33
79705;BME280;69496;53.120;8.764;2023-04-25T07:25:43;101007.00;;;9.63;59.17
79705;BME280;69496;53.120;8.764;2023-04-25T07:28:13;101011.00;;;9.59;57.68
79705;BME280;69496;53.120;8.764;2023-04-25T07:30:43;101015.00;;;9.55;58.40
79705;BME280;69496;53.120;8.764;2023-04-25T07:33:13;101018.00;;;9.52;58.40
79705;BME280;69496;53.120;8.764;2023-04-25T07:35:43;101018.00;;;9.50;58.57
79705;BME280;69496;53.120;8.764;2023-04-25T07:38:13;101020.00;;;9.49;58.98
79705;BME280;69496;53.120;8.764;2023-04-25T07:40:43;101022.00;;;9.50;59.26
79705;BME280;69496;53.120;8.764;2023-04-25T07:43:17;101021.00;;;9.52;58.68
79705;BME280;69496;53.120;8.764;2023-04-25T07:45:44;101021.00;;;9.54;58.37
79705;BME280;69496;53.120;8.764;2023-04-25T07:48:17;101021.00;;;9.59;58.00
79705;BME280;69496;53.120;8.764;2023-04-25T07:50:43;101021.00;;;9.66;56.45
79705;BME280;69496;53.120;8.764;2023-04-25T07:53:14;101021.00;;;9.74;55.29
79705;BME280;69496;53.120;8.764;2023-04-25T07:55:43;101023.00;;;9.82;55.24
79705;BME280;69496;53.120;8.764;2023-04-25T07:58:16;101025.00;;;9.91;54.85
79705;BME280;69496;53.120;8.764;2023-04-25T08:00:43;101026.00;;;9.97;54.30
79705;BME280;69496;53.120;8.764;2023-04-25T08:03:13;101029.00;;;10.02;54.07
79705;BME280;69496;53.120;8.764;2023-04-25T08:05:43;101032.00;;;10.06;54.08
79705;BME280;69496;53.120;8.764;2023-04-25T08:08:13;101034.00;;;10.08;53.94
79705;BME280;69496;53.120;8.764;2023-04-25T08:10:44;101038.00;;;10.07;54.38
79705;BME280;69496;53.120;8.764;2023-04-25T08:13:13;101043.00;;;10.06;55.01
79705;BME280;69496;53.120;8.764;2023-04-25T08:15:43;101051.00;;;10.03;56.39
79705;BME280;69496;53.120;8.764;2023-04-25T08:18:13;101059.00;;;9.96;59.62
79705;BME280;69496;53.120;8.764;2023-04-25T08:20:43;101063.00;;;9.89;61.40
79705;BME280;69496;53.120;8.764;2023-04-25T08:23:14;101068.00;;;9.83;62.50
79705;BME280;69496;53.120;8.764;2023-04-25T08:25:44;101071.00;;;9.80;62.60
79705;BME280;69496;53.120;8.764;2023-04-25T08:28:14;101073.00;;;9.77;61.89
79705;BME280;69496;53.120;8.764;2023-04-25T08:30:43;101075.00;;;9.76;62.16
79705;BME280;69496;53.120;8.764;2023-04-25T08:33:13;101076.00;;;9.76;60.91
79705;BME280;69496;53.120;8.764;2023-04-25T08:35:44;101081.00;;;9.75;60.32
79705;BME280;69496;53.120;8.764;2023-04-25T08:38:13;101083.00;;;9.77;60.03
79705;BME280;69496;53.120;8.764;2023-04-25T08:40:44;101086.00;;;9.78;59.10
79705;BME280;69496;53.120;8.764;2023-04-25T08:43:14;101089.00;;;9.82;58.25
79705;BME280;69496;53.120;8.764;2023-04-25T08:45:43;101091.00;;;9.86;57.52
79705;BME280;69496;53.120;8.764;2023-04-25T08:48:15;101095.00;;;9.88;56.40
79705;BME280;69496;53.120;8.764;2023-04-25T08:50:54;101100.00;;;9.89;55.86
79705;BME280;69496;53.120;8.764;2023-04-25T08:53:28;101105.00;;;9.88;55.88
79705;BME280;69496;53.120;8.764;2023-04-25T08:55:45;101108.00;;;9.87;56.84
79705;BME280;69496;53.120;8.764;2023-04-25T08:58:14;101110.00;;;9.84;57.13
79705;BME280;69496;53.120;8.764;2023-04-25T09:00:45;101111.00;;;9.79;56.94
79705;BME280;69496;53.120;8.764;2023-04-25T09:03:13;101113.00;;;9.77;57.65
79705;BME280;69496;53.120;8.764;2023-04-25T09:05:44;101116.00;;;9.78;57.34
79705;BME280;69496;53.120;8.764;2023-04-25T09:08:13;101119.00;;;9.84;56.82
79705;BME280;69496;53.120;8.764;2023-04-25T09:10:43;101122.00;;;9.93;56.81
79705;BME280;69496;53.120;8.764;2023-04-25T09:13:27;101125.00;;;10.00;55.73
79705;BME280;69496;53.120;8.764;2023-04-25T09:15:51;101126.00;;;10.04;56.18
79705;BME280;69496;53.120;8.764;2023-04-25T09:18:13;101127.00;;;10.10;56.16
79705;BME280;69496;53.120;8.764;2023-04-25T09:20:46;101128.00;;;10.18;56.03
79705;BME280;69496;53.120;8.764;2023-04-25T09:23:14;101131.00;;;10.27;56.00
79705;BME280;69496;53.120;8.764;2023-04-25T09:25:43;101135.00;;;10.33;55.72
79705;BME280;69496;53.120;8.764;2023-04-25T09:28:13;101140.00;;;10.35;56.29
79705;BME280;69496;53.120;8.764;2023-04-25T09:30:45;101147.00;;;10.33;57.35
79705;BME280;69496;53.120;8.764;2023-04-25T09:33:13;101156.00;;;10.25;60.48
79705;BME280;69496;53.120;8.764;2023-04-25T09:35:44;101164.00;;;10.15;61.81
79705;BME280;69496;53.120;8.764;2023-04-25T09:38:14;101171.00;;;10.04;62.78
79705;BME280;69496;53.120;8.764;2023-04-25T09:40:45;101175.00;;;9.94;62.92
79705;BME280;69496;53.120;8.764;2023-04-25T09:43:20;101178.00;;;9.85;63.28
79705;BME280;69496;53.120;8.764;2023-04-25T09:45:48;101180.00;;;9.78;63.65
79705;BME280;69496;53.120;8.764;2023-04-25T09:48:20;101181.00;;;9.72;63.07
79705;BME280;69496;53.120;8.764;2023-04-25T09:50:43;101183.00;;;9.68;63.40
79705;BME280;69496;53.120;8.764;2023-04-25T09:53:13;101185.00;;;9.64;62.80
79705;BME280;69496;53.120;8.764;2023-04-25T09:55:45;101188.00;;;9.61;62.17
79705;BME280;69496;53.120;8.764;2023-04-25T09:58:14;101189.00;;;9.60;61.22
79705;BME280;69496;53.120;8.764;2023-04-25T10:00:43;101188.00;;;9.63;60.15
79705;BME280;69496;53.120;8.764;2023-04-25T10:03:13;101188.00;;;9.69;59.31
79705;BME280;69496;53.120;8.764;2023-04-25T10:05:44;101188.00;;;9.74;56.95
79705;BME280;69496;53.120;8.764;2023-04-25T10:08:13;101187.00;;;9.82;55.12
79705;BME280;69496;53.120;8.764;2023-04-25T10:10:43;101187.00;;;9.92;53.66
79705;BME280;69496;53.120;8.764;2023-04-25T10:13:15;101185.00;;;10.05;52.16
79705;BME280;69496;53.120;8.764;2023-04-25T10:15:43;101185.00;;;10.15;50.42
79705;BME280;69496;53.120;8.764;2023-04-25T10:18:13;101186.00;;;10.26;51.29
79705;BME280;69496;53.120;8.764;2023-04-25T10:20:43;101186.00;;;10.37;52.27
79705;BME280;69496;53.120;8.764;2023-04-25T10:23:14;101187.00;;;10.48;52.06
79705;BME280;69496;53.120;8.764;2023-04-25T10:25:43;101189.00;;;10.59;51.15
79705;BME280;69496;53.120;8.764;2023-04-25T10:28:14;101193.00;;;10.69;52.00
79705;BME280;69496;53.120;8.764;2023-04-25T10:30:59;101196.00;;;10.79;54.24
79705;BME280;69496;53.120;8.764;2023-04-25T10:33:33;101197.00;;;10.87;54.66
79705;BME280;69496;53.120;8.764;2023-04-25T10:35:44;101198.00;;;10.94;54.90
79705;BME280;69496;53.120;8.764;2023-04-25T10:38:14;101201.00;;;10.99;55.03
79705;BME280;69496;53.120;8.764;2023-04-25T10:41:04;101203.00;;;11.02;54.18
79705;BME280;69496;53.120;8.764;2023-04-25T10:43:35;101205.00;;;11.05;53.96
79705;BME280;69496;53.120;8.764;2023-04-25T10:45:52;101207.00;;;11.09;55.16
79705;BME280;69496;53.120;8.764;2023-04-25T10:48:30;101207.00;;;11.10;54.03
79705;BME280;69496;53.120;8.764;2023-04-25T10:50:43;101209.00;;;11.09;53.91
79705;BME280;69496;53.120;8.764;2023-04-25T10:53:16;101210.00;;;11.08;54.35
79705;BME280;69496;53.120;8.764;2023-04-25T10:55:49;101211.00;;;11.07;54.92
79705;BME280;69496;53.120;8.764;2023-04-25T10:58:13;101210.00;;;11.08;55.39
79705;BME280;69496;53.120;8.764;2023-04-25T11:00:43;101210.00;;;11.11;55.34
79705;BME280;69496;53.120;8.764;2023-04-25T11:03:16;101209.00;;;11.18;54.50
79705;BME280;69496;53.120;8.764;2023-04-25T11:05:45;101210.00;;;11.26;54.77
79705;BME280;69496;53.120;8.764;2023-04-25T11:08:22;101210.00;;;11.32;54.50
79705;BME280;69496;53.120;8.764;2023-04-25T11:10:44;101212.00;;;11.34;55.16
79705;BME280;69496;53.120;8.764;2023-04-25T11:13:13;101214.00;;;11.32;56.31
79705;BME280;69496;53.120;8.764;2023-04-25T11:15:43;101219.00;;;11.28;58.26
79705;BME280;69496;53.120;8.764;2023-04-25T11:18:15;101224.00;;;11.23;59.85
79705;BME280;69496;53.120;8.764;2023-04-25T11:20:43;101226.00;;;11.18;60.41
79705;BME280;69496;53.120;8.764;2023-04-25T11:23:13;101228.00;;;11.12;60.36
79705;BME280;69496;53.120;8.764;2023-04-25T11:25:43;101232.00;;;11.05;60.53
79705;BME280;69496;53.120;8.764;2023-04-25T11:28:21;101238.00;;;10.97;60.51
79705;BME280;69496;53.120;8.764;2023-04-25T11:30:47;101248.00;;;10.84;60.34
79705;BME280;69496;53.120;8.764;2023-04-25T11:33:13;101254.00;;;10.70;60.01
79705;BME280;69496;53.120;8.764;2023-04-25T11:35:43;101258.00;;;10.59;60.10
79705;BME280;69496;53.120;8.764;2023-04-25T11:38:13;101259.00;;;10.53;59.83
79705;BME280;69496;53.120;8.764;2023-04-25T11:40:43;101258.00;;;10.53;59.44
79705;BME280;69496;53.120;8.764;2023-04-25T11:43:13;101258.00;;;10.57;59.89
79705;BME280;69496;53.120;8.764;2023-04-25T11:45:46;101259.00;;;10.61;59.38
79705;BME280;69496;53.120;8.764;2023-04-25T11:48:13;101258.00;;;10.63;58.05
79705;BME280;69496;53.120;8.764;2023-04-25T11:50:43;101258.00;;;10.64;57.31
79705;BME280;69496;53.120;8.764;2023-04-25T11:53:13;101259.00;;;10.63;56.35
79705;BME280;69496;53.120;8.764;2023-04-25T11:55:43;101259.00;;;10.61;55.62
79705;BME280;69496;53.120;8.764;2023-04-25T11:58:14;101262.00;;;10.63;54.93
79705;BME280;69496;53.120;8.764;2023-04-25T12:00:44;101269.00;;;10.64;55.37
79705;BME280;69496;53.120;8.764;2023-04-25T12:03:14;101278.00;;;10.61;56.51
79705;BME280;69496;53.120;8.764;2023-04-25T12:05:45;101286.00;;;10.51;55.82
79705;BME280;69496;53.120;8.764;2023-04-25T12:08:14;101288.00;;;10.39;56.95
79705;BME280;69496;53.120;8.764;2023-04-25T12:10:45;101291.00;;;10.26;59.19
79705;BME280;69496;53.120;8.764;2023-04-25T12:13:21;101293.00;;;10.17;58.12
79705;BME280;69496;53.120;8.764;2023-04-25T12:15:43;101293.00;;;10.13;57.20
79705;BME280;69496;53.120;8.764;2023-04-25T12:18:14;101293.00;;;10.11;56.19
79705;BME280;69496;53.120;8.764;2023-04-25T12:20:43;101294.00;;;10.13;55.55
79705;BME280;69496;53.120;8.764;2023-04-25T12:23:13;101295.00;;;10.18;55.58
79705;BME280;69496;53.120;8.764;2023-04-25T12:25:44;101295.00;;;10.26;55.27
79705;BME280;69496;53.120;8.764;2023-04-25T12:28:21;101293.00;;;10.35;54.21
79705;BME280;69496;53.120;8.764;2023-04-25T12:31:01;101293.00;;;10.44;53.52
79705;BME280;69496;53.120;8.764;2023-04-25T12:33:14;101293.00;;;10.53;52.97
79705;BME280;69496;53.120;8.764;2023-04-25T12:35:43;101293.00;;;10.61;53.68
79705;BME280;69496;53.120;8.764;2023-04-25T12:38:27;101294.00;;;10.67;53.06
79705;BME280;69496;53.120;8.764;2023-04-25T12:40:43;101292.00;;;10.70;53.26
79705;BME280;69496;53.120;8.764;2023-04-25T12:43:13;101292.00;;;10.73;53.09
79705;BME280;69496;53.120;8.764;2023-04-25T12:45:44;101290.00;;;10.75;53.56
79705;BME280;69496;53.120;8.764;2023-04-25T12:48:13;101290.00;;;10.81;54.12
79705;BME280;69496;53.120;8.764;2023-04-25T12:50:44;101289.00;;;10.92;53.30
79705;BME280;69496;53.120;8.764;2023-04-25T12:53:14;101290.00;;;11.05;53.24
79705;BME280;69496;53.120;8.764;2023-04-25T12:55:43;101291.00;;;11.14;52.65
79705;BME280;69496;53.120;8.764;2023-04-25T12:58:18;101299.00;;;11.18;53.41
79705;BME280;69496;53.120;8.764;2023-04-25T13:00:44;101309.00;;;11.12;56.37
79705;BME280;69496;53.120;8.764;2023-04-25T13:03:13;101319.00;;;10.96;56.69
79705;BME280;69496;53.120;8.764;2023-04-25T13:05:43;101330.00;;;10.74;58.23
79705;BME280;69496;53.120;8.764;2023-04-25T13:08:13;101333.00;;;10.53;59.98
79705;BME280;69496;53.120;8.764;2023-04-25T13:10:43;101331.00;;;10.37;59.50